sensor_id;sensor_type;location;lat;lon;timestamp;pressure;altitude;pressure_sealevel;temperature;humidity
47815;BME280;33579;50.058;18.130;2023-03-16T00:00:54;99527.25;;;1.75;100.00
47815;BME280;33579;50.058;18.130;2023-03-16T00:01:56;99516.06;;;1.74;100.00
47815;BME280;33579;50.058;18.130;2023-03-16T00:02:57;99522.28;;;1.70;100.00
47815;BME280;33579;50.058;18.130;2023-03-16T00:03:59;99523.00;;;1.74;100.00
47815;BME280;33579;50.058;18.130;2023-03-16T00:05:01;99529.88;;;1.75;100.00
47815;BME280;33579;50.058;18.130;2023-03-16T00:06:02;99532.25;;;1.79;100.00
47815;BME280;33579;50.058;18.130;2023-03-16T00:07:09;99536.53;;;1.80;100.00
47815;BME280;33579;50.058;18.130;2023-03-16T00:08:12;99526.34;;;1.76;100.00
47815;BME280;33579;50.058;18.130;2023-03-16T00:09:14;99546.06;;;1.80;100.00
47815;BME280;33579;50.058;18.130;2023-03-16T00:10:15;99531.41;;;1.79;100.00
47815;BME280;33579;50.058;18.130;2023-03-16T00:11:17;99532.19;;;1.81;100.00
47815;BME280;33579;50.058;18.130;2023-03-16T00:12:19;99534.59;;;1.86;100.00
47815;BME280;33579;50.058;18.130;2023-03-16T00:13:22;99536.94;;;1.90;100.00
47815;BME280;33579;50.058;18.130;2023-03-16T00:14:24;99543.81;;;1.91;100.00
47815;BME280;33579;50.058;18.130;2023-03-16T00:15:26;99540.44;;;1.89;100.00
47815;BME280;33579;50.058;18.130;2023-03-16T00:16:28;99544.72;;;1.90;100.00
47815;BME280;33579;50.058;18.130;2023-03-16T00:17:29;99530.78;;;1.93;100.00
47815;BME280;33579;50.058;18.130;2023-03-16T00:18:31;99544.53;;;1.95;100.00
47815;BME280;33579;50.058;18.130;2023-03-16T00:19:33;99537.78;;;1.91;100.00
47815;BME280;33579;50.058;18.130;2023-03-16T00:20:34;99543.69;;;1.94;100.00
47815;BME280;33579;50.058;18.130;2023-03-16T00:21:36;99544.53;;;1.95;100.00
47815;BME280;33579;50.058;18.130;2023-03-16T00:22:37;99537.66;;;1.94;100.00
47815;BME280;33579;50.058;18.130;2023-03-16T00:23:39;99544.66;;;1.92;100.00
47815;BME280;33579;50.058;18.130;2023-03-16T00:24:41;99546.50;;;1.90;100.00
47815;BME280;33579;50.058;18.130;2023-03-16T00:25:43;99546.50;;;1.90;100.00
47815;BME280;33579;50.058;18.130;2023-03-16T00:26:45;99542.22;;;1.89;100.00
47815;BME280;33579;50.058;18.130;2023-03-16T00:27:48;99552.44;;;1.92;100.00
47815;BME280;33579;50.058;18.130;2023-03-16T00:28:50;99542.22;;;1.89;100.00
47815;BME280;33579;50.058;18.130;2023-03-16T00:29:53;99551.75;;;1.88;100.00
47815;BME280;33579;50.058;18.130;2023-03-16T00:30:54;99546.50;;;1.90;100.00
47815;BME280;33579;50.058;18.130;2023-03-16T00:31:56;99545.53;;;1.92;100.00
47815;BME280;33579;50.058;18.130;2023-03-16T00:32:58;99546.34;;;1.93;100.00
47815;BME280;33579;50.058;18.130;2023-03-16T00:33:59;99543.97;;;1.88;100.00
47815;BME280;33579;50.058;18.130;2023-03-16T00:35:04;99552.75;;;1.86;100.00
47815;BME280;33579;50.058;18.130;2023-03-16T00:36:10;99552.59;;;1.89;100.00
47815;BME280;33579;50.058;18.130;2023-03-16T00:37:15;99553.50;;;1.88;100.00
47815;BME280;33579;50.058;18.130;2023-03-16T00:38:18;99553.56;;;1.86;100.00
47815;BME280;33579;50.058;18.130;2023-03-16T00:39:20;99552.59;;;1.89;100.00
47815;BME280;33579;50.058;18.130;2023-03-16T00:40:22;99551.59;;;1.91;100.00
47815;BME280;33579;50.058;18.130;2023-03-16T00:41:24;99542.97;;;1.91;100.00
47815;BME280;33579;50.058;18.130;2023-03-16T00:42:27;99550.91;;;1.88;100.00
47815;BME280;33579;50.058;18.130;2023-03-16T00:43:30;99552.84;;;1.82;100.00
47815;BME280;33579;50.058;18.130;2023-03-16T00:44:32;99551.25;;;1.80;100.00
47815;BME280;33579;50.058;18.130;2023-03-16T00:45:33;99551.31;;;1.78;100.00
47815;BME280;33579;50.058;18.130;2023-03-16T00:46:35;99552.28;;;1.76;100.00
47815;BME280;33579;50.058;18.130;2023-03-16T00:47:37;99554.25;;;1.71;100.00
47815;BME280;33579;50.058;18.130;2023-03-16T00:48:40;99553.28;;;1.73;100.00
47815;BME280;33579;50.058;18.130;2023-03-16T00:49:42;99550.63;;;1.75;100.00
47815;BME280;33579;50.058;18.130;2023-03-16T00:50:44;99553.06;;;1.78;100.00
47815;BME280;33579;50.058;18.130;2023-03-16T00:51:46;99551.47;;;1.75;100.00
47815;BME280;33579;50.058;18.130;2023-03-16T00:52:47;99554.84;;;1.77;100.00
47815;BME280;33579;50.058;18.130;2023-03-16T00:53:49;99556.78;;;1.72;100.00
47815;BME280;33579;50.058;18.130;2023-03-16T00:54:51;99555.22;;;1.68;100.00
47815;BME280;33579;50.058;18.130;2023-03-16T00:55:53;99553.59;;;1.65;100.00
47815;BME280;33579;50.058;18.130;2023-03-16T00:56:54;99556.16;;;1.67;100.00
47815;BME280;33579;50.058;18.130;2023-03-16T00:57:56;99562.66;;;1.57;100.00
47815;BME280;33579;50.058;18.130;2023-03-16T00:58:58;99564.53;;;1.53;100.00
47815;BME280;33579;50.058;18.130;2023-03-16T00:59:59;99561.69;;;1.59;100.00
47815;BME280;33579;50.058;18.130;2023-03-16T01:01:02;99559.78;;;1.63;100.00
47815;BME280;33579;50.058;18.130;2023-03-16T01:02:06;99557.88;;;1.66;100.00
47815;BME280;33579;50.058;18.130;2023-03-16T01:03:08;99558.53;;;1.72;100.00
47815;BME280;33579;50.058;18.130;2023-03-16T01:04:09;99564.50;;;1.74;100.00
47815;BME280;33579;50.058;18.130;2023-03-16T01:05:12;99563.59;;;1.75;100.00
47815;BME280;33579;50.058;18.130;2023-03-16T01:06:16;99564.47;;;1.54;100.00
47815;BME280;33579;50.058;18.130;2023-03-16T01:07:18;99573.22;;;1.52;100.00
47815;BME280;33579;50.058;18.130;2023-03-16T01:08:20;99562.69;;;1.36;100.00
47815;BME280;33579;50.058;18.130;2023-03-16T01:09:21;99560.34;;;1.30;100.00
47815;BME280;33579;50.058;18.130;2023-03-16T01:10:25;99565.34;;;1.34;100.00
47815;BME280;33579;50.058;18.130;2023-03-16T01:11:27;99565.19;;;1.37;100.00
47815;BME280;33579;50.058;18.130;2023-03-16T01:12:28;99559.81;;;1.42;100.00
47815;BME280;33579;50.058;18.130;2023-03-16T01:13:30;99567.34;;;1.48;100.00
47815;BME280;33579;50.058;18.130;2023-03-16T01:14:33;99574.31;;;1.46;100.00
47815;BME280;33579;50.058;18.130;2023-03-16T01:15:36;99563.03;;;1.47;100.00
47815;BME280;33579;50.058;18.130;2023-03-16T01:16:38;99566.44;;;1.49;100.00
47815;BME280;33579;50.058;18.130;2023-03-16T01:17:40;99568.81;;;1.54;100.00
47815;BME280;33579;50.058;18.130;2023-03-16T01:18:41;99576.47;;;1.57;100.00
47815;BME280;33579;50.058;18.130;2023-03-16T01:19:44;99567.63;;;1.61;100.00
47815;BME280;33579;50.058;18.130;2023-03-16T01:20:45;99574.59;;;1.61;100.00
47815;BME280;33579;50.058;18.130;2023-03-16T01:21:47;99568.59;;;1.59;100.00
47815;BME280;33579;50.058;18.130;2023-03-16T01:22:49;99573.09;;;1.55;100.00
47815;BME280;33579;50.058;18.130;2023-03-16T01:23:50;99574.06;;;1.52;100.00
47815;BME280;33579;50.058;18.130;2023-03-16T01:24:52;99577.00;;;1.45;100.00
47815;BME280;33579;50.058;18.130;2023-03-16T01:25:55;99580.84;;;1.36;100.00
47815;BME280;33579;50.058;18.130;2023-03-16T01:26:57;99573.56;;;1.23;100.00
47815;BME280;33579;50.058;18.130;2023-03-16T01:27:59;99577.31;;;1.16;100.00
47815;BME280;33579;50.058;18.130;2023-03-16T01:29:01;99579.66;;;1.22;100.00
47815;BME280;33579;50.058;18.130;2023-03-16T01:30:04;99583.03;;;1.24;100.00
47815;BME280;33579;50.058;18.130;2023-03-16T01:31:11;99581.75;;;1.14;100.00
47815;BME280;33579;50.058;18.130;2023-03-16T01:32:13;99581.53;;;1.19;100.00
47815;BME280;33579;50.058;18.130;2023-03-16T01:33:15;99583.22;;;1.20;100.00
47815;BME280;33579;50.058;18.130;2023-03-16T01:34:17;99578.28;;;1.14;100.00
47815;BME280;33579;50.058;18.130;2023-03-16T01:35:19;99579.91;;;1.16;100.00
47815;BME280;33579;50.058;18.130;2023-03-16T01:36:21;99579.91;;;1.16;100.00
47815;BME280;33579;50.058;18.130;2023-03-16T01:37:30;99579.00;;;1.17;100.00
47815;BME280;33579;50.058;18.130;2023-03-16T01:38:46;99584.00;;;1.22;100.00
47815;BME280;33579;50.058;18.130;2023-03-16T01:39:48;99582.00;;;1.29;100.00
47815;BME280;33579;50.058;18.130;2023-03-16T01:40:51;99584.78;;;1.24;100.00
47815;BME280;33579;50.058;18.130;2023-03-16T01:41:53;99580.50;;;1.23;100.00
47815;BME280;33579;50.058;18.130;2023-03-16T01:43:00;99579.53;;;1.25;100.00
47815;BME280;33579;50.058;18.130;2023-03-16T01:44:05;99587.19;;;1.29;100.00
47815;BME280;33579;50.058;18.130;2023-03-16T01:46:47;99585.69;;;1.23;100.00
47815;BME280;33579;50.058;18.130;2023-03-16T01:47:49;99590.16;;;1.19;100.00
47815;BME280;33579;50.058;18.130;2023-03-16T01:49:06;99584.19;;;1.17;100.00
47815;BME280;33579;50.058;18.130;2023-03-16T01:50:09;99587.81;;;1.13;100.00
47815;BME280;33579;50.058;18.130;2023-03-16T01:51:18;99583.78;;;1.06;100.00
47815;BME280;33579;50.058;18.130;2023-03-16T01:52:28;99579.25;;;1.11;100.00
47815;BME280;33579;50.058;18.130;2023-03-16T01:53:32;99582.84;;;1.08;100.00
47815;BME280;33579;50.058;18.130;2023-03-16T01:54:38;99580.06;;;1.13;100.00
47815;BME280;33579;50.058;18.130;2023-03-16T01:55:41;99584.31;;;1.14;100.00
47815;BME280;33579;50.058;18.130;2023-03-16T01:57:53;99584.00;;;1.22;100.00
47815;BME280;33579;50.058;18.130;2023-03-16T01:58:58;99581.28;;;1.25;100.00
47815;BME280;33579;50.058;18.130;2023-03-16T02:01:15;99579.22;;;1.33;100.00
47815;BME280;33579;50.058;18.130;2023-03-16T02:02:20;99591.06;;;1.39;100.00
47815;BME280;33579;50.058;18.130;2023-03-16T02:03:24;99584.97;;;1.40;100.00
47815;BME280;33579;50.058;18.130;2023-03-16T02:06:01;99590.78;;;1.45;100.00
47815;BME280;33579;50.058;18.130;2023-03-16T02:07:08;99595.88;;;1.48;100.00
47815;BME280;33579;50.058;18.130;2023-03-16T02:08:10;99588.19;;;1.45;100.00
47815;BME280;33579;50.058;18.130;2023-03-16T02:09:12;99588.19;;;1.45;100.00
47815;BME280;33579;50.058;18.130;2023-03-16T02:10:17;99588.91;;;1.49;100.00
47815;BME280;33579;50.058;18.130;2023-03-16T02:11:20;99596.63;;;1.50;100.00
47815;BME280;33579;50.058;18.130;2023-03-16T02:12:42;99599.34;;;1.47;100.00
47815;BME280;33579;50.058;18.130;2023-03-16T02:13:45;99594.03;;;1.50;100.00
47815;BME280;33579;50.058;18.130;2023-03-16T02:14:48;99596.63;;;1.50;100.00
47815;BME280;33579;50.058;18.130;2023-03-16T02:15:51;99601.31;;;1.42;100.00
47815;BME280;33579;50.058;18.130;2023-03-16T02:16:53;99599.47;;;1.44;100.00
47815;BME280;33579;50.058;18.130;2023-03-16T02:17:55;99606.28;;;1.47;100.00
47815;BME280;33579;50.058;18.130;2023-03-16T02:18:58;99602.34;;;1.38;100.00
47815;BME280;33579;50.058;18.130;2023-03-16T02:21:22;99609.06;;;1.42;100.00
47815;BME280;33579;50.058;18.130;2023-03-16T02:22:28;99607.25;;;1.44;100.00
47815;BME280;33579;50.058;18.130;2023-03-16T02:23:30;99609.03;;;1.44;100.00
47815;BME280;33579;50.058;18.130;2023-03-16T02:24:32;99614.25;;;1.42;100.00
47815;BME280;33579;50.058;18.130;2023-03-16T02:27:05;99608.38;;;1.38;100.00
47815;BME280;33579;50.058;18.130;2023-03-16T02:28:49;99615.31;;;1.38;100.00
47815;BME280;33579;50.058;18.130;2023-03-16T02:30:07;99613.72;;;1.34;100.00
47815;BME280;33579;50.058;18.130;2023-03-16T02:31:17;99613.16;;;1.27;100.00
47815;BME280;33579;50.058;18.130;2023-03-16T02:32:21;99615.03;;;1.23;100.00
47815;BME280;33579;50.058;18.130;2023-03-16T02:33:24;99615.75;;;1.27;100.00
47815;BME280;33579;50.058;18.130;2023-03-16T02:34:26;99615.75;;;1.27;100.00
47815;BME280;33579;50.058;18.130;2023-03-16T02:35:28;99620.94;;;1.27;100.00
47815;BME280;33579;50.058;18.130;2023-03-16T02:36:31;99613.22;;;1.25;100.00
47815;BME280;33579;50.058;18.130;2023-03-16T02:37:34;99621.13;;;1.22;100.00
47815;BME280;33579;50.058;18.130;2023-03-16T02:38:36;99627.16;;;1.23;100.00
47815;BME280;33579;50.058;18.130;2023-03-16T02:39:37;99628.38;;;1.14;100.00
47815;BME280;33579;50.058;18.130;2023-03-16T02:40:39;99627.13;;;1.02;100.00
47815;BME280;33579;50.058;18.130;2023-03-16T02:41:44;99625.56;;;0.98;100.00
47815;BME280;33579;50.058;18.130;2023-03-16T02:43:17;99629.00;;;0.98;100.00
47815;BME280;33579;50.058;18.130;2023-03-16T02:44:32;99632.38;;;1.01;100.00
47815;BME280;33579;50.058;18.130;2023-03-16T02:45:58;99626.03;;;1.08;100.00
47815;BME280;33579;50.058;18.130;2023-03-16T02:47:06;99629.53;;;1.07;100.00
47815;BME280;33579;50.058;18.130;2023-03-16T02:48:15;99630.44;;;1.06;100.00
47815;BME280;33579;50.058;18.130;2023-03-16T02:49:23;99627.06;;;1.04;100.00
47815;BME280;33579;50.058;18.130;2023-03-16T02:50:26;99631.72;;;0.95;100.00
47815;BME280;33579;50.058;18.130;2023-03-16T02:51:29;99632.50;;;0.75;100.00
47815;BME280;33579;50.058;18.130;2023-03-16T02:52:34;99635.78;;;0.80;100.00
47815;BME280;33579;50.058;18.130;2023-03-16T02:53:36;99637.31;;;0.84;100.00
47815;BME280;33579;50.058;18.130;2023-03-16T02:54:38;99638.97;;;0.87;100.00
47815;BME280;33579;50.058;18.130;2023-03-16T02:55:40;99635.53;;;0.87;100.00
47815;BME280;33579;50.058;18.130;2023-03-16T02:56:42;99632.78;;;0.90;100.00
47815;BME280;33579;50.058;18.130;2023-03-16T02:57:44;99638.75;;;0.92;100.00
47815;BME280;33579;50.058;18.130;2023-03-16T02:58:49;99646.47;;;0.93;100.00
47815;BME280;33579;50.058;18.130;2023-03-16T02:59:52;99640.34;;;0.96;100.00
47815;BME280;33579;50.058;18.130;2023-03-16T03:00:55;99641.34;;;0.92;100.00
47815;BME280;33579;50.058;18.130;2023-03-16T03:01:57;99644.06;;;0.89;100.00
47815;BME280;33579;50.058;18.130;2023-03-16T03:02:58;99650.50;;;0.78;100.00
47815;BME280;33579;50.058;18.130;2023-03-16T03:04:00;99650.75;;;0.72;100.00
47815;BME280;33579;50.058;18.130;2023-03-16T03:05:02;99655.16;;;0.70;100.00
47815;BME280;33579;50.058;18.130;2023-03-16T03:06:04;99653.53;;;0.67;100.00
47815;BME280;33579;50.058;18.130;2023-03-16T03:07:09;99655.50;;;0.61;100.00
47815;BME280;33579;50.058;18.130;2023-03-16T03:08:27;99655.97;;;0.48;100.00
47815;BME280;33579;50.058;18.130;2023-03-16T03:09:29;99657.22;;;0.38;100.00
47815;BME280;33579;50.058;18.130;2023-03-16T03:10:31;99654.91;;;0.30;100.00
47815;BME280;33579;50.058;18.130;2023-03-16T03:11:33;99656.72;;;0.28;100.00
47815;BME280;33579;50.058;18.130;2023-03-16T03:12:35;99662.13;;;0.22;100.00
47815;BME280;33579;50.058;18.130;2023-03-16T03:13:39;99658.75;;;0.20;100.00
47815;BME280;33579;50.058;18.130;2023-03-16T03:14:46;99655.50;;;0.15;100.00
47815;BME280;33579;50.058;18.130;2023-03-16T03:15:50;99660.06;;;0.08;100.00
47815;BME280;33579;50.058;18.130;2023-03-16T03:16:55;99654.97;;;0.05;100.00
47815;BME280;33579;50.058;18.130;2023-03-16T03:17:56;99659.16;;;0.09;100.00
47815;BME280;33579;50.058;18.130;2023-03-16T03:18:58;99666.97;;;0.07;100.00
47815;BME280;33579;50.058;18.130;2023-03-16T03:20:03;99663.53;;;0.07;100.00
47815;BME280;33579;50.058;18.130;2023-03-16T03:21:04;99662.84;;;0.02;100.00
47815;BME280;33579;50.058;18.130;2023-03-16T03:22:07;99665.44;;;0.02;100.00
47815;BME280;33579;50.058;18.130;2023-03-16T03:23:09;99667.97;;;0.03;100.00
47815;BME280;33579;50.058;18.130;2023-03-16T03:24:11;99664.66;;;-0.01;100.00
47815;BME280;33579;50.058;18.130;2023-03-16T03:25:14;99663.88;;;-0.03;100.00
47815;BME280;33579;50.058;18.130;2023-03-16T03:26:16;99669.78;;;0.01;100.00
47815;BME280;33579;50.058;18.130;2023-03-16T03:27:19;99673.25;;;0.00;100.00
47815;BME280;33579;50.058;18.130;2023-03-16T03:28:24;99673.97;;;0.04;100.00
47815;BME280;33579;50.058;18.130;2023-03-16T03:29:26;99673.00;;;0.08;100.00
47815;BME280;33579;50.058;18.130;2023-03-16T03:30:28;99673.69;;;0.11;100.00
47815;BME280;33579;50.058;18.130;2023-03-16T03:31:30;99673.69;;;0.11;100.00
47815;BME280;33579;50.058;18.130;2023-03-16T03:32:31;99678.19;;;0.06;100.00
47815;BME280;33579;50.058;18.130;2023-03-16T03:33:33;99681.53;;;0.10;100.00
47815;BME280;33579;50.058;18.130;2023-03-16T03:34:36;99679.69;;;0.13;100.00
47815;BME280;33579;50.058;18.130;2023-03-16T03:35:39;99671.09;;;0.11;100.00
47815;BME280;33579;50.058;18.130;2023-03-16T03:36:41;99680.78;;;0.06;100.00
47815;BME280;33579;50.058;18.130;2023-03-16T03:37:43;99674.72;;;0.07;100.00
47815;BME280;33579;50.058;18.130;2023-03-16T03:38:45;99675.78;;;0.02;100.00
47815;BME280;33579;50.058;18.130;2023-03-16T03:39:46;99681.22;;;-0.06;100.00
47815;BME280;33579;50.058;18.130;2023-03-16T03:40:51;99671.97;;;-0.13;100.00
47815;BME280;33579;50.058;18.130;2023-03-16T03:41:53;99680.56;;;-0.11;100.00
47815;BME280;33579;50.058;18.130;2023-03-16T03:42:56;99679.75;;;-0.13;100.00
47815;BME280;33579;50.058;18.130;2023-03-16T03:43:59;99685.81;;;-0.15;100.00
47815;BME280;33579;50.058;18.130;2023-03-16T03:45:01;99680.78;;;-0.19;100.00
47815;BME280;33579;50.058;18.130;2023-03-16T03:46:02;99679.06;;;-0.19;100.00
47815;BME280;33579;50.058;18.130;2023-03-16T03:47:07;99688.56;;;-0.19;100.00
47815;BME280;33579;50.058;18.130;2023-03-16T03:48:09;99681.44;;;-0.12;100.00
47815;BME280;33579;50.058;18.130;2023-03-16T03:49:10;99684.84;;;-0.10;100.00
47815;BME280;33579;50.058;18.130;2023-03-16T03:50:12;99679.66;;;-0.10;100.00
47815;BME280;33579;50.058;18.130;2023-03-16T03:51:33;99681.44;;;-0.12;100.00
47815;BME280;33579;50.058;18.130;2023-03-16T03:52:38;99690.00;;;-0.10;100.00
47815;BME280;33579;50.058;18.130;2023-03-16T03:53:39;99687.63;;;-0.17;100.00
47815;BME280;33579;50.058;18.130;2023-03-16T03:55:09;99685.88;;;-0.16;100.00
47815;BME280;33579;50.058;18.130;2023-03-16T03:56:11;99684.00;;;-0.12;100.00
47815;BME280;33579;50.058;18.130;2023-03-16T03:57:13;99693.38;;;-0.08;100.00
47815;BME280;33579;50.058;18.130;2023-03-16T03:58:15;99692.63;;;-0.12;100.00
47815;BME280;33579;50.058;18.130;2023-03-16T03:59:17;99689.19;;;-0.12;100.00
47815;BME280;33579;50.058;18.130;2023-03-16T04:00:37;99693.56;;;-0.15;100.00
47815;BME280;33579;50.058;18.130;2023-03-16T04:01:39;99693.66;;;-0.16;100.00
47815;BME280;33579;50.058;18.130;2023-03-16T04:02:40;99694.34;;;-0.12;100.00
47815;BME280;33579;50.058;18.130;2023-03-16T04:03:50;99695.25;;;-0.13;100.00
47815;BME280;33579;50.058;18.130;2023-03-16T04:04:52;99693.50;;;-0.11;100.00
47815;BME280;33579;50.058;18.130;2023-03-16T04:05:55;99694.16;;;-0.06;100.00
47815;BME280;33579;50.058;18.130;2023-03-16T04:06:56;99701.91;;;-0.06;100.00
47815;BME280;33579;50.058;18.130;2023-03-16T04:07:58;99701.72;;;0.00;100.00
47815;BME280;33579;50.058;18.130;2023-03-16T04:09:00;99697.41;;;-0.01;100.00
47815;BME280;33579;50.058;18.130;2023-03-16T04:10:04;99706.66;;;0.06;100.00
47815;BME280;33579;50.058;18.130;2023-03-16T04:11:11;99696.34;;;0.05;100.00
47815;BME280;33579;50.058;18.130;2023-03-16T04:12:13;99702.44;;;0.04;100.00
47815;BME280;33579;50.058;18.130;2023-03-16T04:13:14;99706.66;;;0.06;100.00
47815;BME280;33579;50.058;18.130;2023-03-16T04:14:16;99703.00;;;0.12;100.00
47815;BME280;33579;50.058;18.130;2023-03-16T04:15:18;99703.00;;;0.12;100.00
47815;BME280;33579;50.058;18.130;2023-03-16T04:16:30;99711.72;;;0.09;100.00
47815;BME280;33579;50.058;18.130;2023-03-16T04:17:32;99710.97;;;0.06;100.00
47815;BME280;33579;50.058;18.130;2023-03-16T04:18:35;99712.00;;;0.02;100.00
47815;BME280;33579;50.058;18.130;2023-03-16T04:19:39;99714.66;;;0.00;100.00
47815;BME280;33579;50.058;18.130;2023-03-16T04:20:45;99712.13;;;-0.02;100.00
47815;BME280;33579;50.058;18.130;2023-03-16T04:21:50;99716.53;;;-0.05;100.00
47815;BME280;33579;50.058;18.130;2023-03-16T04:22:53;99715.78;;;-0.09;100.00
47815;BME280;33579;50.058;18.130;2023-03-16T04:23:55;99721.94;;;-0.11;100.00
47815;BME280;33579;50.058;18.130;2023-03-16T04:25:04;99715.16;;;-0.16;100.00
47815;BME280;33579;50.058;18.130;2023-03-16T04:26:09;99719.50;;;-0.16;100.00
47815;BME280;33579;50.058;18.130;2023-03-16T04:27:11;99717.91;;;-0.20;100.00
47815;BME280;33579;50.058;18.130;2023-03-16T04:28:13;99716.19;;;-0.20;100.00
47815;BME280;33579;50.058;18.130;2023-03-16T04:29:15;99717.88;;;-0.19;100.00
47815;BME280;33579;50.058;18.130;2023-03-16T04:30:18;99722.25;;;-0.21;100.00
47815;BME280;33579;50.058;18.130;2023-03-16T04:31:24;99723.41;;;-0.30;100.00
47815;BME280;33579;50.058;18.130;2023-03-16T04:32:26;99719.19;;;-0.32;100.00
47815;BME280;33579;50.058;18.130;2023-03-16T04:33:29;99715.53;;;-0.26;100.00
47815;BME280;33579;50.058;18.130;2023-03-16T04:34:30;99723.34;;;-0.28;100.00
47815;BME280;33579;50.058;18.130;2023-03-16T04:35:35;99719.84;;;-0.27;100.00
47815;BME280;33579;50.058;18.130;2023-03-16T04:36:37;99717.19;;;-0.24;100.00
47815;BME280;33579;50.058;18.130;2023-03-16T04:37:39;99718.75;;;-0.20;100.00
47815;BME280;33579;50.058;18.130;2023-03-16T04:38:41;99719.81;;;-0.25;100.00
47815;BME280;33579;50.058;18.130;2023-03-16T04:39:44;99718.97;;;-0.26;100.00
47815;BME280;33579;50.058;18.130;2023-03-16T04:40:45;99714.75;;;-0.29;100.00
47815;BME280;33579;50.058;18.130;2023-03-16T04:41:51;99723.44;;;-0.31;100.00
47815;BME280;33579;50.058;18.130;2023-03-16T04:42:55;99719.97;;;-0.30;100.00
47815;BME280;33579;50.058;18.130;2023-03-16T04:43:57;99724.59;;;-0.40;100.00
47815;BME280;33579;50.058;18.130;2023-03-16T04:44:59;99725.50;;;-0.41;100.00
47815;BME280;33579;50.058;18.130;2023-03-16T04:46:02;99724.78;;;-0.46;100.00
47815;BME280;33579;50.058;18.130;2023-03-16T04:47:05;99724.72;;;-0.43;100.00
47815;BME280;33579;50.058;18.130;2023-03-16T04:48:11;99726.34;;;-0.40;100.00
47815;BME280;33579;50.058;18.130;2023-03-16T04:49:13;99730.69;;;-0.41;100.00
47815;BME280;33579;50.058;18.130;2023-03-16T04:50:17;99733.16;;;-0.38;100.00
47815;BME280;33579;50.058;18.130;2023-03-16T04:51:25;99733.03;;;-0.35;100.00
47815;BME280;33579;50.058;18.130;2023-03-16T04:52:42;99741.59;;;-0.33;100.00
47815;BME280;33579;50.058;18.130;2023-03-16T04:53:43;99739.06;;;-0.34;100.00
47815;BME280;33579;50.058;18.130;2023-03-16T04:55:07;99740.81;;;-0.35;100.00
47815;BME280;33579;50.058;18.130;2023-03-16T04:56:10;99738.84;;;-0.28;100.00
47815;BME280;33579;50.058;18.130;2023-03-16T04:57:12;99737.06;;;-0.26;100.00
47815;BME280;33579;50.058;18.130;2023-03-16T04:58:19;99739.59;;;-0.24;100.00
47815;BME280;33579;50.058;18.130;2023-03-16T04:59:23;99736.16;;;-0.25;100.00
47815;BME280;33579;50.058;18.130;2023-03-16T05:00:33;99735.28;;;-0.24;100.00
47815;BME280;33579;50.058;18.130;2023-03-16T05:01:39;99734.44;;;-0.24;100.00
47815;BME280;33579;50.058;18.130;2023-03-16T05:02:41;99745.53;;;-0.21;100.00
47815;BME280;33579;50.058;18.130;2023-03-16T05:03:43;99741.88;;;-0.15;100.00
47815;BME280;33579;50.058;18.130;2023-03-16T05:04:45;99737.34;;;-0.08;100.00
47815;BME280;33579;50.058;18.130;2023-03-16T05:05:47;99739.72;;;-0.02;100.00
47815;BME280;33579;50.058;18.130;2023-03-16T05:06:49;99742.84;;;0.08;100.00
47815;BME280;33579;50.058;18.130;2023-03-16T05:07:55;99745.28;;;0.12;100.00
47815;BME280;33579;50.058;18.130;2023-03-16T05:08:58;99750.38;;;0.14;100.00
47815;BME280;33579;50.058;18.130;2023-03-16T05:10:01;99754.28;;;0.01;100.00
47815;BME280;33579;50.058;18.130;2023-03-16T05:11:02;99753.22;;;0.06;100.00
47815;BME280;33579;50.058;18.130;2023-03-16T05:12:09;99754.78;;;0.12;100.00
47815;BME280;33579;50.058;18.130;2023-03-16T05:13:11;99750.19;;;0.20;100.00
47815;BME280;33579;50.058;18.130;2023-03-16T05:14:13;99763.63;;;0.30;100.00
47815;BME280;33579;50.058;18.130;2023-03-16T05:15:27;99756.75;;;0.29;100.00
47815;BME280;33579;50.058;18.130;2023-03-16T05:16:33;99758.28;;;0.35;100.00
47815;BME280;33579;50.058;18.130;2023-03-16T05:17:35;99753.84;;;0.38;100.00
47815;BME280;33579;50.058;18.130;2023-03-16T05:18:38;99759.75;;;0.42;100.00
47815;BME280;33579;50.058;18.130;2023-03-16T05:19:39;99760.44;;;0.47;100.00
47815;BME280;33579;50.058;18.130;2023-03-16T05:20:41;99770.56;;;0.53;100.00
47815;BME280;33579;50.058;18.130;2023-03-16T05:21:43;99771.34;;;0.55;100.00
47815;BME280;33579;50.058;18.130;2023-03-16T05:22:45;99766.13;;;0.57;100.00
47815;BME280;33579;50.058;18.130;2023-03-16T05:23:51;99766.97;;;0.58;100.00
47815;BME280;33579;50.058;18.130;2023-03-16T05:24:52;99773.00;;;0.58;100.00
47815;BME280;33579;50.058;18.130;2023-03-16T05:25:54;99768.72;;;0.57;100.00
47815;BME280;33579;50.058;18.130;2023-03-16T05:26:57;99772.16;;;0.58;100.00
47815;BME280;33579;50.058;18.130;2023-03-16T05:27:59;99773.09;;;0.55;100.00
47815;BME280;33579;50.058;18.130;2023-03-16T05:29:06;99773.16;;;0.53;100.00
47815;BME280;33579;50.058;18.130;2023-03-16T05:30:09;99778.50;;;0.49;100.00
47815;BME280;33579;50.058;18.130;2023-03-16T05:31:11;99772.69;;;0.42;100.00
47815;BME280;33579;50.058;18.130;2023-03-16T05:32:17;99778.78;;;0.41;100.00
47815;BME280;33579;50.058;18.130;2023-03-16T05:33:19;99771.00;;;0.41;100.00
47815;BME280;33579;50.058;18.130;2023-03-16T05:34:24;99778.84;;;0.39;100.00
47815;BME280;33579;50.058;18.130;2023-03-16T05:35:26;99777.16;;;0.38;100.00
47815;BME280;33579;50.058;18.130;2023-03-16T05:36:32;99773.66;;;0.39;100.00
47815;BME280;33579;50.058;18.130;2023-03-16T05:37:40;99780.41;;;0.44;100.00
47815;BME280;33579;50.058;18.130;2023-03-16T05:38:47;99782.78;;;0.50;100.00
47815;BME280;33579;50.058;18.130;2023-03-16T05:39:58;99778.31;;;0.53;100.00
47815;BME280;33579;50.058;18.130;2023-03-16T05:40:59;99789.53;;;0.54;100.00
47815;BME280;33579;50.058;18.130;2023-03-16T05:42:30;99781.53;;;0.60;100.00